Time;durP1;ratioP1;P1;durP2;ratioP2;P2;SDS_P1;SDS_P2;PMS_P1;PMS_P2;Temp;Humidity;BMP_temperature;BMP_pressure;BME280_temperature;BME280_humidity;BME280_pressure;Samples;Min_cycle;Max_cycle;Signal;HPM_P1;HPM_P2
2022/05/26 00:00:34;;;;;;;0.68;0.30;;;18.10;72.80;;;;;;4976392;28;20027;-79
2022/05/26 00:03:00;;;;;;;3.85;0.40;;;18.10;73.10;;;;;;4960110;28;20043;-80
2022/05/26 00:05:27;;;;;;;1.17;0.30;;;18.10;73.20;;;;;;4960279;28;20475;-79
2022/05/26 00:07:53;;;;;;;0.75;0.20;;;18.10;73.50;;;;;;4977900;28;20023;-78
2022/05/26 00:10:19;;;;;;;0.50;0.28;;;18.10;73.50;;;;;;4976286;28;20033;-79
2022/05/26 00:12:45;;;;;;;0.50;0.20;;;18.00;74.20;;;;;;4977985;28;20030;-79
2022/05/26 00:15:11;;;;;;;2.58;0.25;;;18.00;73.80;;;;;;4976056;28;20054;-79
2022/05/26 00:17:38;;;;;;;0.30;0.20;;;18.00;74.00;;;;;;4976253;28;20077;-78
2022/05/26 00:20:06;;;;;;;1.13;0.25;;;18.00;74.10;;;;;;4976904;28;20026;-79
2022/05/26 00:22:32;;;;;;;2.15;0.30;;;18.00;74.30;;;;;;4959978;28;20102;-79
2022/05/26 00:24:58;;;;;;;0.45;0.30;;;18.00;74.50;;;;;;4975736;28;20047;-78
2022/05/26 00:27:23;;;;;;;0.20;0.20;;;18.00;75.10;;;;;;4975441;28;20058;-78
2022/05/26 00:29:49;;;;;;;0.47;0.28;;;17.90;74.50;;;;;;4975662;28;20034;-78
2022/05/26 00:32:14;;;;;;;1.30;0.30;;;17.90;74.40;;;;;;4976387;28;20019;-79
2022/05/26 00:34:40;;;;;;;1.23;0.25;;;17.90;74.50;;;;;;4976886;28;20031;-78
2022/05/26 00:37:08;;;;;;;0.40;0.20;;;17.90;74.30;;;;;;4959170;28;20476;-78
2022/05/26 00:39:34;;;;;;;0.32;0.30;;;17.90;74.60;;;;;;4976912;28;20026;-78
2022/05/26 00:42:03;;;;;;;2.30;0.20;;;17.80;74.50;;;;;;4975670;28;20026;-80
2022/05/26 00:44:30;;;;;;;2.65;0.20;;;17.90;75.60;;;;;;4975897;28;20456;-79
2022/05/26 00:47:02;;;;;;;0.82;0.30;;;17.90;75.40;;;;;;4975847;28;20027;-79
2022/05/26 00:49:39;;;;;;;1.48;0.30;;;17.90;75.60;;;;;;4976162;28;20456;-79
2022/05/26 00:52:06;;;;;;;3.97;0.60;;;17.90;75.80;;;;;;4959457;28;20471;-83
2022/05/26 00:54:33;;;;;;;2.80;0.40;;;17.90;76.00;;;;;;4976632;28;20106;-79
2022/05/26 00:57:04;;;;;;;0.85;0.50;;;17.80;75.70;;;;;;4975550;28;20023;-79
2022/05/26 00:59:45;;;;;;;1.95;0.20;;;17.80;75.70;;;;;;4959220;28;20388;-79
2022/05/26 01:02:13;;;;;;;1.00;0.20;;;17.80;75.50;;;;;;4958963;28;20046;-79
2022/05/26 01:04:49;;;;;;;0.40;0.28;;;17.80;75.60;;;;;;4975570;28;20405;-79
2022/05/26 01:07:20;;;;;;;1.35;0.30;;;17.80;75.90;;;;;;4975183;28;20062;-78
2022/05/26 01:09:46;;;;;;;2.17;0.20;;;17.80;75.50;;;;;;4975326;28;20027;-79
2022/05/26 01:12:12;;;;;;;0.73;0.25;;;17.80;75.70;;;;;;4975100;28;20027;-79
2022/05/26 01:14:44;;;;;;;0.50;0.20;;;17.80;75.60;;;;;;4975318;28;20038;-78
2022/05/26 01:17:32;;;;;;;2.83;0.50;;;17.80;75.80;;;;;;4975804;28;20027;-79
2022/05/26 01:20:06;;;;;;;2.00;0.20;;;17.80;75.90;;;;;;4976228;28;20027;-79
2022/05/26 01:23:05;;;;;;;1.65;0.20;;;17.80;75.90;;;;;;4958943;28;20045;-79
2022/05/26 01:25:55;;;;;;;0.50;0.20;;;17.80;76.10;;;;;;4958649;28;20149;-79
2022/05/26 01:28:31;;;;;;;1.10;0.30;;;17.80;76.10;;;;;;4974550;28;20027;-79
2022/05/26 01:31:15;;;;;;;2.25;0.45;;;17.70;76.30;;;;;;4976149;28;20034;-79
2022/05/26 01:34:19;;;;;;;0.43;0.25;;;17.70;76.20;;;;;;4958777;28;20495;-79
2022/05/26 01:37:08;;;;;;;0.98;0.40;;;17.70;76.30;;;;;;4916346;29;20075;-79
2022/05/26 01:39:49;;;;;;;1.45;0.30;;;17.70;76.50;;;;;;4971970;28;20039;-80
2022/05/26 01:42:20;;;;;;;1.83;0.20;;;17.60;76.70;;;;;;4957986;28;20484;-79
2022/05/26 01:45:07;;;;;;;0.43;0.30;;;17.60;76.70;;;;;;4958185;28;20436;-78
2022/05/26 01:48:14;;;;;;;0.40;0.28;;;17.60;76.70;;;;;;4975407;28;20031;-78
2022/05/26 01:50:56;;;;;;;0.63;0.15;;;17.60;77.00;;;;;;4974356;28;20084;-79
2022/05/26 01:53:24;;;;;;;1.42;0.30;;;17.60;77.20;;;;;;4974506;28;20054;-78
2022/05/26 01:56:11;;;;;;;0.57;0.20;;;17.60;77.30;;;;;;4958414;28;20042;-79
2022/05/26 01:58:45;;;;;;;1.15;0.30;;;17.50;77.70;;;;;;4958043;28;20081;-78
2022/05/26 02:01:23;;;;;;;0.35;0.20;;;17.50;77.70;;;;;;4973722;28;20085;-81
2022/05/26 02:03:52;;;;;;;0.88;0.40;;;17.50;77.80;;;;;;4975404;28;20101;-77
2022/05/26 02:06:26;;;;;;;0.85;0.30;;;17.50;77.80;;;;;;4956997;28;20038;-77
2022/05/26 02:08:56;;;;;;;2.88;0.20;;;17.50;77.70;;;;;;4973720;28;20031;-77
2022/05/26 02:11:23;;;;;;;0.10;0.10;;;17.50;77.60;;;;;;4973326;28;20023;-78
2022/05/26 02:13:51;;;;;;;0.95;0.32;;;17.50;77.70;;;;;;4975024;28;20030;-77
2022/05/26 02:16:25;;;;;;;0.30;0.17;;;17.50;77.60;;;;;;4973614;28;20170;-78
2022/05/26 02:19:03;;;;;;;0.95;0.10;;;17.40;77.40;;;;;;4975004;28;20023;-78
2022/05/26 02:21:39;;;;;;;2.83;0.22;;;17.50;77.60;;;;;;4957433;28;20026;-78
2022/05/26 02:24:17;;;;;;;0.65;0.20;;;17.50;77.80;;;;;;4957702;28;20126;-79
2022/05/26 02:26:43;;;;;;;1.13;0.20;;;17.40;77.80;;;;;;4974829;28;20492;-78
2022/05/26 02:31:54;;;;;;;2.40;0.30;;;17.40;78.10;;;;;;4974867;28;20042;-79
2022/05/26 02:34:21;;;;;;;1.25;0.30;;;17.40;78.30;;;;;;4973116;28;20117;-77
2022/05/26 02:36:54;;;;;;;1.95;0.30;;;17.30;78.30;;;;;;4957382;28;20031;-77
2022/05/26 02:39:20;;;;;;;1.23;0.22;;;17.30;78.50;;;;;;4974183;28;20031;-78
2022/05/26 02:41:46;;;;;;;2.58;0.22;;;17.30;78.50;;;;;;4974615;28;20033;-77
2022/05/26 02:44:12;;;;;;;0.82;0.22;;;17.20;78.50;;;;;;4972924;28;20067;-79
2022/05/26 02:47:15;;;;;;;1.58;0.22;;;17.20;78.60;;;;;;4973159;28;20030;-76
2022/05/26 02:50:12;;;;;;;4.78;0.50;;;17.20;78.50;;;;;;4973487;28;20027;-76
2022/05/26 02:52:59;;;;;;;0.82;0.30;;;17.20;78.50;;;;;;4957106;28;20121;-77
2022/05/26 02:55:25;;;;;;;2.83;0.45;;;17.10;78.60;;;;;;4956590;28;20166;-77
2022/05/26 02:58:12;;;;;;;1.58;0.28;;;17.10;78.70;;;;;;4977326;28;20105;-77
2022/05/26 03:01:03;;;;;;;1.70;0.38;;;17.10;78.90;;;;;;4978212;28;20033;-77
2022/05/26 03:03:37;;;;;;;0.73;0.20;;;17.00;79.20;;;;;;4960540;28;20031;-77
2022/05/26 03:06:19;;;;;;;0.38;0.20;;;17.00;79.40;;;;;;4977178;28;20058;-77
2022/05/26 03:08:46;;;;;;;1.25;0.30;;;17.00;79.70;;;;;;4961030;28;20027;-77
2022/05/26 03:11:17;;;;;;;1.70;0.40;;;16.90;79.80;;;;;;4976827;28;20384;-79
2022/05/26 03:13:43;;;;;;;4.38;0.40;;;17.00;79.90;;;;;;4977557;28;20030;-79
2022/05/26 03:16:09;;;;;;;0.77;0.30;;;16.90;80.00;;;;;;4961265;28;20142;-79
2022/05/26 03:18:35;;;;;;;0.63;0.20;;;16.90;80.10;;;;;;4976933;28;20867;-79
2022/05/26 03:21:03;;;;;;;2.13;0.47;;;16.90;80.20;;;;;;4978194;28;20023;-79
2022/05/26 03:23:29;;;;;;;0.50;0.20;;;16.90;80.20;;;;;;4960469;28;20031;-79
2022/05/26 03:25:56;;;;;;;1.70;0.20;;;17.00;80.50;;;;;;4977046;28;20101;-78
2022/05/26 03:28:26;;;;;;;1.15;0.30;;;16.90;80.40;;;;;;4978044;28;20023;-80
2022/05/26 03:30:52;;;;;;;0.93;0.32;;;16.90;80.40;;;;;;4961120;28;20509;-80
2022/05/26 03:33:18;;;;;;;0.75;0.20;;;16.90;80.60;;;;;;4976772;28;20069;-81
2022/05/26 03:41:13;;;;;;;1.48;0.30;;;17.00;80.60;;;;;;4978056;28;20514;-81
2022/05/26 03:43:43;;;;;;;2.03;0.20;;;17.00;80.60;;;;;;4977013;28;20039;-80
2022/05/26 03:46:09;;;;;;;1.55;0.43;;;17.00;80.90;;;;;;4977286;28;20435;-80
2022/05/26 03:48:36;;;;;;;0.20;0.20;;;17.00;81.00;;;;;;4976378;28;20472;-79
2022/05/26 03:51:02;;;;;;;1.48;0.20;;;17.00;81.20;;;;;;4976574;28;20037;-79
2022/05/26 03:53:28;;;;;;;0.60;0.30;;;17.00;81.20;;;;;;4977084;28;20379;-79
2022/05/26 03:55:53;;;;;;;1.50;0.10;;;17.00;81.20;;;;;;4976361;28;20037;-77
2022/05/26 03:58:19;;;;;;;2.75;0.45;;;17.00;81.30;;;;;;4975798;28;20033;-79
2022/05/26 04:00:45;;;;;;;1.90;0.40;;;16.90;81.40;;;;;;4977433;28;20070;-78
2022/05/26 04:03:11;;;;;;;2.17;0.50;;;17.00;81.50;;;;;;4976479;28;20465;-79
2022/05/26 04:05:37;;;;;;;0.90;0.30;;;16.90;81.60;;;;;;4977168;28;20575;-79
2022/05/26 04:08:03;;;;;;;0.32;0.30;;;16.90;81.80;;;;;;4960145;28;20118;-81
2022/05/26 04:10:29;;;;;;;2.72;0.40;;;16.90;81.90;;;;;;4976296;28;20034;-81
2022/05/26 04:12:55;;;;;;;0.80;0.22;;;16.90;82.10;;;;;;4960761;28;20134;-80
2022/05/26 04:15:22;;;;;;;0.95;0.30;;;16.90;82.90;;;;;;4976934;28;20023;-81
2022/05/26 04:17:48;;;;;;;2.45;0.52;;;16.90;82.40;;;;;;4959889;28;20110;-78
2022/05/26 04:20:16;;;;;;;1.60;0.30;;;16.90;82.50;;;;;;4975988;28;20441;-78
2022/05/26 04:22:42;;;;;;;2.97;0.65;;;16.90;82.60;;;;;;4975624;28;20038;-78
2022/05/26 04:25:09;;;;;;;2.03;0.45;;;16.90;83.10;;;;;;4975523;28;20050;-79
2022/05/26 04:27:35;;;;;;;2.00;0.30;;;17.00;82.70;;;;;;4975321;28;20085;-77
2022/05/26 04:30:03;;;;;;;0.75;0.20;;;17.00;82.60;;;;;;4975691;28;20034;-77
2022/05/26 04:32:29;;;;;;;0.15;0.10;;;17.00;82.60;;;;;;4975411;28;20090;-77
2022/05/26 04:34:55;;;;;;;0.88;0.20;;;17.00;82.70;;;;;;4975889;28;20158;-77
2022/05/26 04:37:22;;;;;;;1.38;0.20;;;17.00;82.70;;;;;;4975226;28;20113;-78
2022/05/26 04:39:48;;;;;;;3.05;0.55;;;17.00;82.60;;;;;;4976962;28;20106;-77
2022/05/26 04:42:14;;;;;;;0.80;0.30;;;17.00;82.80;;;;;;4975725;28;20090;-77
2022/05/26 04:44:43;;;;;;;1.65;0.20;;;17.00;82.80;;;;;;4976242;28;20263;-77
2022/05/26 04:47:11;;;;;;;2.80;0.15;;;17.00;83.00;;;;;;4975421;28;20026;-77
2022/05/26 04:49:37;;;;;;;1.35;0.35;;;17.00;83.00;;;;;;4975316;28;20316;-79
2022/05/26 04:52:08;;;;;;;2.40;0.47;;;17.00;83.00;;;;;;4959904;28;20078;-79
2022/05/26 04:54:36;;;;;;;0.47;0.22;;;17.00;83.20;;;;;;4975422;28;20471;-79
2022/05/26 04:57:02;;;;;;;1.60;0.30;;;16.90;83.10;;;;;;4975412;28;20078;-78
2022/05/26 04:59:29;;;;;;;1.75;0.20;;;16.90;83.30;;;;;;4975222;28;20051;-80
2022/05/26 05:01:54;;;;;;;2.95;0.30;;;16.90;83.50;;;;;;4975515;28;20058;-79
2022/05/26 05:04:24;;;;;;;1.35;0.30;;;16.90;83.60;;;;;;4974698;28;20034;-80
2022/05/26 05:06:50;;;;;;;0.60;0.28;;;16.90;83.40;;;;;;4976235;28;20027;-79
2022/05/26 05:09:16;;;;;;;0.85;0.20;;;16.90;83.60;;;;;;4975176;28;20023;-80
2022/05/26 05:11:42;;;;;;;2.85;0.30;;;16.90;83.80;;;;;;4976199;28;20475;-80
2022/05/26 05:14:07;;;;;;;0.77;0.15;;;16.90;83.70;;;;;;4976660;28;20105;-80
2022/05/26 05:16:42;;;;;;;1.73;0.30;;;16.90;83.80;;;;;;4975373;28;20425;-81
2022/05/26 05:19:12;;;;;;;1.25;0.30;;;16.90;84.00;;;;;;4974769;28;20181;-81
2022/05/26 05:21:43;;;;;;;1.58;0.30;;;16.90;83.80;;;;;;4976432;28;20437;-81
2022/05/26 05:24:19;;;;;;;0.85;0.10;;;16.90;84.00;;;;;;4976239;28;20058;-79
2022/05/26 05:26:50;;;;;;;0.65;0.40;;;17.00;84.30;;;;;;4975037;28;20041;-79
2022/05/26 05:29:18;;;;;;;1.92;0.40;;;17.00;84.00;;;;;;4958857;28;20475;-79
2022/05/26 05:31:55;;;;;;;1.23;0.30;;;17.00;83.80;;;;;;4958869;28;20081;-79
2022/05/26 05:34:27;;;;;;;1.00;0.38;;;17.10;83.90;;;;;;4974661;28;20038;-80
2022/05/26 05:36:53;;;;;;;1.33;0.20;;;17.10;83.40;;;;;;4975831;28;20475;-79
2022/05/26 05:39:18;;;;;;;2.22;0.20;;;17.20;83.40;;;;;;4974793;28;20027;-79
2022/05/26 05:41:44;;;;;;;0.40;0.30;;;17.20;83.80;;;;;;4958391;28;20037;-80
2022/05/26 05:44:10;;;;;;;0.40;0.28;;;17.20;83.70;;;;;;4974499;28;20051;-79
2022/05/26 05:46:53;;;;;;;2.38;0.60;;;17.20;83.80;;;;;;4974157;28;20030;-78
2022/05/26 05:49:24;;;;;;;0.63;0.50;;;17.20;84.10;;;;;;4974869;28;20030;-80
2022/05/26 05:51:50;;;;;;;4.25;0.80;;;17.20;84.20;;;;;;4975016;28;20027;-79
2022/05/26 05:54:17;;;;;;;1.65;0.20;;;17.20;84.10;;;;;;4975861;28;20031;-79
2022/05/26 05:56:43;;;;;;;1.02;0.40;;;17.20;84.40;;;;;;4957879;28;20019;-80
2022/05/26 05:59:08;;;;;;;5.70;2.55;;;17.10;84.00;;;;;;4974726;28;20101;-80
2022/05/26 06:01:34;;;;;;;1.80;0.40;;;17.10;84.20;;;;;;4975177;28;20380;-79
2022/05/26 06:04:00;;;;;;;0.63;0.22;;;17.20;84.30;;;;;;4974176;28;20059;-78
2022/05/26 06:06:26;;;;;;;1.65;0.32;;;17.20;84.60;;;;;;4974678;28;20030;-79
2022/05/26 06:08:52;;;;;;;0.95;0.28;;;17.10;84.20;;;;;;4974189;28;20027;-79
2022/05/26 06:11:17;;;;;;;0.52;0.20;;;17.10;84.70;;;;;;4975432;28;20109;-78
2022/05/26 06:13:44;;;;;;;0.30;0.20;;;17.20;84.50;;;;;;4974775;28;20022;-80
2022/05/26 06:16:10;;;;;;;2.92;0.40;;;17.20;84.70;;;;;;4974252;28;20023;-78
2022/05/26 06:18:36;;;;;;;4.10;0.30;;;17.30;84.90;;;;;;4974374;28;20042;-78
2022/05/26 06:21:04;;;;;;;4.43;0.70;;;17.40;84.40;;;;;;4974881;28;20352;-78
2022/05/26 06:23:30;;;;;;;1.35;0.50;;;17.40;83.80;;;;;;4974660;28;20113;-78
2022/05/26 06:25:56;;;;;;;0.98;0.40;;;17.50;83.90;;;;;;4974350;28;20085;-78
2022/05/26 06:31:08;;;;;;;1.73;0.30;;;17.50;84.40;;;;;;4975005;28;20467;-79
2022/05/26 06:39:03;;;;;;;1.98;0.30;;;17.80;84.00;;;;;;4974768;28;20041;-78
2022/05/26 06:44:13;;;;;;;1.75;0.40;;;17.90;83.50;;;;;;4974248;28;20380;-78
2022/05/26 06:46:39;;;;;;;2.70;0.52;;;17.90;83.50;;;;;;4972871;28;20022;-78
2022/05/26 06:49:06;;;;;;;0.82;0.30;;;18.00;84.10;;;;;;4957314;28;20448;-77
2022/05/26 06:51:34;;;;;;;1.40;0.40;;;18.10;84.30;;;;;;4974030;28;20019;-77
2022/05/26 06:53:59;;;;;;;2.80;1.35;;;18.10;84.10;;;;;;4974470;28;20023;-77
2022/05/26 06:56:25;;;;;;;2.95;0.68;;;18.10;83.90;;;;;;4973862;28;20022;-79
2022/05/26 06:58:51;;;;;;;1.65;0.50;;;18.10;83.60;;;;;;4972803;28;20022;-77
2022/05/26 07:01:17;;;;;;;0.70;0.40;;;18.10;83.90;;;;;;4956753;28;20030;-79
2022/05/26 07:03:43;;;;;;;1.60;0.40;;;18.10;83.80;;;;;;4972693;28;20483;-82
2022/05/26 07:06:35;;;;;;;0.55;0.20;;;18.10;84.00;;;;;;4957137;28;20034;-80
2022/05/26 07:09:00;;;;;;;;;;;18.10;84.90;;;;;;4951856;29;20499;-80
2022/05/26 07:11:26;;;;;;;0.52;0.30;;;18.10;84.90;;;;;;4953097;29;19945;-80
2022/05/26 07:13:51;;;;;;;1.10;0.40;;;18.20;85.00;;;;;;4938586;29;20023;-79
2022/05/26 07:16:17;;;;;;;3.45;0.50;;;18.20;85.30;;;;;;4942489;28;20456;-79
2022/05/26 07:18:43;;;;;;;1.23;0.47;;;18.20;84.70;;;;;;4972794;28;20483;-82
2022/05/26 07:21:10;;;;;;;2.47;0.38;;;18.20;84.30;;;;;;4972232;28;20019;-82
2022/05/26 07:23:36;;;;;;;3.78;0.57;;;18.30;84.90;;;;;;4972880;28;20030;-82
2022/05/26 07:26:07;;;;;;;3.22;1.38;;;18.30;84.40;;;;;;4973060;28;20055;-82
2022/05/26 07:28:38;;;;;;;3.95;1.50;;;18.30;84.30;;;;;;4957266;28;20081;-82
2022/05/26 07:31:04;;;;;;;3.37;0.60;;;18.40;84.30;;;;;;4969743;28;20069;-85
2022/05/26 07:33:29;;;;;;;0.85;0.40;;;18.50;84.30;;;;;;4972900;28;20304;-82
2022/05/26 07:35:55;;;;;;;4.05;1.70;;;18.40;84.20;;;;;;4973055;28;20325;-80
2022/05/26 07:41:20;;;;;;;4.80;2.03;;;18.50;84.60;;;;;;4973985;28;20045;-80
2022/05/26 07:43:52;;;;;;;5.28;1.13;;;18.50;83.40;;;;;;4961316;28;20035;-80
2022/05/26 07:46:18;;;;;;;3.40;1.45;;;18.50;83.10;;;;;;4975411;28;20033;-79
2022/05/26 07:48:44;;;;;;;3.92;1.00;;;18.50;83.60;;;;;;4965225;28;20078;-78
2022/05/26 07:51:10;;;;;;;3.35;0.90;;;18.60;83.80;;;;;;4965304;28;20031;-80
2022/05/26 07:53:35;;;;;;;2.10;0.73;;;18.50;83.40;;;;;;4970785;28;20037;-79
2022/05/26 07:56:02;;;;;;;3.22;0.60;;;18.50;83.50;;;;;;4968866;28;20019;-79
2022/05/26 07:58:28;;;;;;;2.92;0.57;;;18.40;83.80;;;;;;4966511;28;20030;-79
2022/05/26 08:00:54;;;;;;;1.95;0.40;;;18.40;84.40;;;;;;4970882;28;20038;-82
2022/05/26 08:03:21;;;;;;;0.73;0.47;;;18.40;84.70;;;;;;4969624;28;20039;-81
2022/05/26 08:05:47;;;;;;;2.40;0.50;;;18.50;84.70;;;;;;4962149;28;20034;-80
2022/05/26 08:08:13;;;;;;;1.58;0.88;;;18.50;84.60;;;;;;4973206;28;20026;-81
2022/05/26 08:10:39;;;;;;;4.97;0.68;;;18.50;84.70;;;;;;4968824;28;20023;-81
2022/05/26 08:13:06;;;;;;;1.17;0.50;;;18.60;85.00;;;;;;4975352;28;20038;-79
2022/05/26 08:15:32;;;;;;;3.95;0.40;;;18.60;84.70;;;;;;4970461;28;20033;-82
2022/05/26 08:17:58;;;;;;;2.30;0.50;;;18.70;85.20;;;;;;4967635;28;20026;-79
2022/05/26 08:20:24;;;;;;;2.42;0.52;;;18.70;85.00;;;;;;4975917;28;20030;-78
2022/05/26 08:22:50;;;;;;;4.18;0.80;;;18.70;84.60;;;;;;4975260;28;20060;-78
2022/05/26 08:25:16;;;;;;;3.20;0.80;;;18.70;84.10;;;;;;4973459;28;20051;-79
2022/05/26 08:27:41;;;;;;;3.95;0.85;;;18.70;84.20;;;;;;4975840;28;20058;-79
2022/05/26 08:30:08;;;;;;;2.42;0.50;;;18.70;84.50;;;;;;4966643;28;20030;-79
2022/05/26 08:32:34;;;;;;;3.60;0.82;;;18.80;85.20;;;;;;4968285;28;20237;-81
2022/05/26 08:35:03;;;;;;;2.58;0.40;;;18.90;84.90;;;;;;4966466;28;20392;-80
2022/05/26 08:37:28;;;;;;;4.20;0.98;;;18.90;83.70;;;;;;4974690;28;20076;-85
2022/05/26 08:39:54;;;;;;;3.55;0.40;;;18.90;83.40;;;;;;4966446;28;20035;-81
2022/05/26 08:42:29;;;;;;;1.95;0.47;;;18.90;83.60;;;;;;4959007;28;20038;-82
2022/05/26 08:45:00;;;;;;;2.05;0.50;;;19.00;83.60;;;;;;4973916;28;20450;-80
2022/05/26 08:47:40;;;;;;;0.60;0.40;;;19.00;83.90;;;;;;4973832;28;20035;-82
2022/05/26 08:50:24;;;;;;;1.20;0.80;;;19.00;83.20;;;;;;4974666;28;20111;-80
2022/05/26 08:53:02;;;;;;;1.50;0.70;;;19.00;83.90;;;;;;4956881;28;20031;-79
2022/05/26 08:55:41;;;;;;;3.65;0.90;;;18.90;84.20;;;;;;4951922;28;20023;-79
2022/05/26 08:58:17;;;;;;;2.05;0.70;;;19.10;84.30;;;;;;4974128;28;20026;-79
2022/05/26 09:00:48;;;;;;;3.50;1.60;;;19.10;83.80;;;;;;4975751;28;20190;-88
2022/05/26 09:03:33;;;;;;;2.13;0.60;;;19.10;84.20;;;;;;4961065;28;20042;-86
2022/05/26 09:06:20;;;;;;;1.10;0.50;;;19.20;83.60;;;;;;4976316;28;20042;-88
2022/05/26 09:14:08;;;;;;;0.98;0.40;;;19.10;83.60;;;;;;4958333;29;20055;-88
2022/05/26 09:16:40;;;;;;;2.42;0.60;;;19.00;84.40;;;;;;4957684;28;20035;-88
2022/05/26 09:19:21;;;;;;;1.80;0.60;;;19.00;84.00;;;;;;4961258;29;20118;-88
2022/05/26 09:21:48;;;;;;;1.85;0.60;;;19.00;83.50;;;;;;4958789;29;20027;-88
2022/05/26 09:24:26;;;;;;;4.70;0.63;;;18.90;83.90;;;;;;4957338;28;20083;-88
2022/05/26 09:27:00;;;;;;;2.42;0.50;;;18.90;84.20;;;;;;4956123;29;20039;-87
2022/05/26 09:29:37;;;;;;;3.88;0.60;;;18.90;83.90;;;;;;4956406;29;20487;-88
2022/05/26 09:32:05;;;;;;;1.10;0.60;;;18.90;84.50;;;;;;4961410;29;20032;-87
2022/05/26 09:34:33;;;;;;;2.58;1.25;;;18.80;84.50;;;;;;4960038;29;20031;-86
2022/05/26 09:37:07;;;;;;;0.77;0.38;;;18.80;85.30;;;;;;4959137;29;20139;-89
2022/05/26 09:39:42;;;;;;;0.85;0.45;;;18.80;84.90;;;;;;4959203;29;20034;-87
2022/05/26 09:42:16;;;;;;;2.00;0.60;;;18.90;85.40;;;;;;4956532;29;20034;-87
2022/05/26 09:45:02;;;;;;;1.92;0.60;;;18.90;84.70;;;;;;4961312;29;20499;-87
2022/05/26 09:47:33;;;;;;;0.73;0.38;;;18.90;84.70;;;;;;4962262;29;20051;-87
2022/05/26 09:50:02;;;;;;;2.83;0.80;;;19.00;84.80;;;;;;4960359;29;20087;-88
2022/05/26 09:52:46;;;;;;;0.70;0.43;;;19.10;84.80;;;;;;4960193;29;20031;-87
2022/05/26 09:55:19;;;;;;;2.97;0.70;;;19.10;84.00;;;;;;4955936;29;20465;-87
2022/05/26 09:57:46;;;;;;;2.55;0.77;;;19.10;84.40;;;;;;4955411;29;20034;-87
2022/05/26 10:00:33;;;;;;;0.90;0.40;;;19.10;84.30;;;;;;4955473;29;20031;-86
2022/05/26 10:03:04;;;;;;;4.13;0.60;;;19.10;84.90;;;;;;4955803;29;20109;-87
2022/05/26 10:05:45;;;;;;;4.47;0.63;;;19.10;85.10;;;;;;4955650;28;20031;-87
2022/05/26 10:08:23;;;;;;;4.25;0.75;;;19.20;84.80;;;;;;4956530;29;20099;-86
2022/05/26 10:11:13;;;;;;;3.75;0.70;;;19.20;84.40;;;;;;4955268;29;20027;-87
2022/05/26 10:13:54;;;;;;;4.45;1.50;;;19.10;85.10;;;;;;4955777;29;20049;-88
2022/05/26 10:16:43;;;;;;;2.90;0.90;;;19.10;85.60;;;;;;4956052;29;20125;-87
2022/05/26 10:19:35;;;;;;;5.28;2.08;;;19.00;86.30;;;;;;4956228;29;20034;-87
2022/05/26 10:22:08;;;;;;;;;;;19.00;86.20;;;;;;4934215;29;20035;-85
2022/05/26 10:24:40;;;;;;;2.22;1.10;;;19.00;86.40;;;;;;4955906;29;19918;-87
2022/05/26 10:27:14;;;;;;;2.22;1.40;;;19.10;86.50;;;;;;4955715;29;20460;-86
2022/05/26 10:30:17;;;;;;;2.67;0.70;;;19.00;86.20;;;;;;4954931;29;20487;-87
2022/05/26 10:32:56;;;;;;;2.35;0.80;;;19.00;86.10;;;;;;4956915;29;20046;-87
2022/05/26 10:35:34;;;;;;;4.70;0.80;;;19.10;85.50;;;;;;4956724;29;20027;-88
2022/05/26 10:38:12;;;;;;;0.60;0.40;;;19.10;85.40;;;;;;4956676;29;20027;-88
2022/05/26 10:40:43;;;;;;;2.50;0.63;;;19.20;85.00;;;;;;4955662;29;20031;-88
2022/05/26 10:43:09;;;;;;;;;;;19.50;85.50;;;;;;4955846;29;20050;-89
2022/05/26 10:45:48;;;;;;;1.83;0.70;;;19.50;83.90;;;;;;4956349;29;19914;-88
2022/05/26 10:48:32;;;;;;;2.13;0.80;;;19.60;84.50;;;;;;4940368;29;20031;-88
2022/05/26 10:51:28;;;;;;;3.67;0.60;;;19.60;84.30;;;;;;4954760;29;20098;-88
2022/05/26 10:53:59;;;;;;;1.90;0.57;;;19.60;83.20;;;;;;4955295;29;20042;-88
2022/05/26 10:56:50;;;;;;;1.23;0.70;;;19.70;84.30;;;;;;4957148;29;20042;-88
2022/05/26 10:59:27;;;;;;;1.55;0.65;;;19.80;82.50;;;;;;4957159;29;20035;-87
2022/05/26 11:01:53;;;;;;;0.70;0.40;;;19.90;82.30;;;;;;4955855;29;20126;-86
2022/05/26 11:04:33;;;;;;;1.75;0.38;;;19.90;81.60;;;;;;4956389;29;20027;-85
2022/05/26 11:07:10;;;;;;;1.52;0.40;;;19.90;80.40;;;;;;4954399;29;20035;-85
2022/05/26 11:09:50;;;;;;;1.52;0.40;;;20.00;80.70;;;;;;4954777;29;20031;-86
2022/05/26 11:12:25;;;;;;;0.47;0.40;;;20.20;80.50;;;;;;4954963;29;20042;-87
2022/05/26 11:18:05;;;;;;;2.00;0.43;;;20.40;80.60;;;;;;4956498;28;20038;-87
2022/05/26 11:20:45;;;;;;;2.80;0.38;;;20.40;80.90;;;;;;4959599;29;20024;-87
2022/05/26 11:23:16;;;;;;;0.93;0.43;;;20.70;81.10;;;;;;4958273;29;20130;-87
2022/05/26 11:26:00;;;;;;;1.02;0.50;;;20.90;80.60;;;;;;4958179;29;20055;-87
2022/05/26 11:28:40;;;;;;;1.27;0.30;;;21.00;80.00;;;;;;4959739;29;20031;-87
2022/05/26 11:36:58;;;;;;;1.58;0.30;;;20.40;79.10;;;;;;4958827;29;20106;-87
2022/05/26 11:39:39;;;;;;;0.40;0.30;;;20.30;79.80;;;;;;4958106;29;20059;-87
2022/05/26 11:42:09;;;;;;;2.15;0.50;;;20.20;80.90;;;;;;4942615;29;20095;-86
2022/05/26 11:44:55;;;;;;;1.42;0.40;;;20.10;81.20;;;;;;4944166;29;20106;-86
2022/05/26 11:47:46;;;;;;;2.35;0.52;;;20.10;81.30;;;;;;4961668;29;20023;-87
2022/05/26 11:50:23;;;;;;;1.20;0.30;;;20.00;79.80;;;;;;4961202;29;20535;-87
2022/05/26 11:52:52;;;;;;;2.50;0.45;;;19.90;80.30;;;;;;4957596;29;20031;-88
2022/05/26 11:55:24;;;;;;;1.90;0.40;;;20.00;80.80;;;;;;4957671;29;20031;-88
2022/05/26 11:57:56;;;;;;;0.55;0.25;;;20.10;80.60;;;;;;4958427;29;20038;-88
2022/05/26 12:00:34;;;;;;;0.77;0.38;;;20.20;78.80;;;;;;4942002;29;20413;-88
2022/05/26 12:03:24;;;;;;;0.73;0.35;;;20.30;78.60;;;;;;4957048;29;20046;-87
2022/05/26 12:06:15;;;;;;;1.45;0.47;;;20.40;79.20;;;;;;4957410;29;20023;-88
2022/05/26 12:09:00;;;;;;;0.73;0.30;;;20.50;79.70;;;;;;4952287;29;20036;-92
2022/05/26 12:12:00;;;;;;;0.75;0.40;;;20.60;79.20;;;;;;4957896;29;20472;-89
2022/05/26 12:14:38;;;;;;;2.00;0.38;;;20.60;78.20;;;;;;4957866;29;20037;-88
2022/05/26 12:17:38;;;;;;;0.40;0.30;;;20.70;77.00;;;;;;4958283;29;20061;-87
2022/05/26 12:20:09;;;;;;;1.75;0.30;;;20.70;77.20;;;;;;4956874;29;20039;-88
2022/05/26 12:22:47;;;;;;;1.65;0.40;;;20.80;76.70;;;;;;4957620;29;20038;-89
2022/05/26 12:25:33;;;;;;;0.85;0.30;;;20.80;75.90;;;;;;4957241;29;20129;-87
2022/05/26 12:28:13;;;;;;;2.20;0.50;;;20.80;76.30;;;;;;4956403;28;20031;-89
2022/05/26 12:30:45;;;;;;;0.73;0.35;;;20.80;77.20;;;;;;4958439;29;20034;-88
2022/05/26 12:33:24;;;;;;;;;;;20.60;77.20;;;;;;4957883;29;20492;-87
2022/05/26 12:36:20;;;;;;;0.93;0.40;;;20.70;77.80;;;;;;4957368;29;19912;-86
2022/05/26 12:39:13;;;;;;;2.30;0.60;;;20.70;78.10;;;;;;4957620;29;20054;-88
2022/05/26 12:42:00;;;;;;;1.30;0.47;;;20.70;77.70;;;;;;4957195;29;20038;-88
2022/05/26 12:44:48;;;;;;;0.75;0.43;;;20.70;77.40;;;;;;4956713;29;20031;-88
2022/05/26 12:47:16;;;;;;;1.58;0.32;;;20.90;76.60;;;;;;4956980;29;20030;-88
2022/05/26 12:50:01;;;;;;;1.02;0.70;;;21.00;76.70;;;;;;4959502;29;20030;-89
2022/05/26 12:52:37;;;;;;;2.13;0.55;;;21.00;75.60;;;;;;4943121;29;20094;-89
2022/05/26 12:55:30;;;;;;;1.17;0.50;;;21.10;75.50;;;;;;4959020;29;20037;-88
2022/05/26 12:58:43;;;;;;;0.93;0.45;;;21.10;75.20;;;;;;4958473;29;20031;-88
2022/05/26 13:01:14;;;;;;;0.20;0.20;;;21.30;74.60;;;;;;4921787;29;20039;-89
2022/05/26 13:03:43;;;;;;;0.75;0.30;;;21.60;74.00;;;;;;4943535;29;20513;-85
2022/05/26 13:06:47;;;;;;;0.85;0.40;;;21.80;72.80;;;;;;4942964;29;20037;-89
2022/05/26 13:09:21;;;;;;;1.15;0.50;;;22.00;72.40;;;;;;4957091;29;20125;-86
2022/05/26 13:11:59;;;;;;;15.25;8.77;;;22.00;70.60;;;;;;4959059;29;20031;-88
2022/05/26 13:14:37;;;;;;;2.65;0.80;;;22.20;71.20;;;;;;4960208;29;20140;-87
2022/05/26 13:17:11;;;;;;;1.08;0.60;;;22.20;70.50;;;;;;4959551;29;20031;-87
2022/05/26 13:19:52;;;;;;;1.55;0.52;;;22.20;69.60;;;;;;4960016;29;20058;-90
2022/05/26 13:22:31;;;;;;;1.13;0.30;;;22.00;69.00;;;;;;4959985;29;20031;-87
2022/05/26 13:24:57;;;;;;;1.25;0.50;;;22.00;68.70;;;;;;4956611;29;20054;-88
2022/05/26 13:27:27;;;;;;;0.35;0.30;;;22.10;67.90;;;;;;4960135;29;20499;-87
2022/05/26 13:33:07;;;;;;;1.83;0.40;;;22.50;67.20;;;;;;4958519;29;20030;-89
2022/05/26 13:35:25;;;;;;;0.38;0.30;;;22.80;66.70;;;;;;4960339;29;20212;-89
2022/05/26 13:37:50;;;;;;;1.88;0.40;;;23.60;64.30;;;;;;4958504;29;20063;-90
2022/05/26 13:40:21;;;;;;;0.90;0.43;;;24.30;63.20;;;;;;4957785;28;20457;-88
2022/05/26 13:42:49;;;;;;;0.68;0.35;;;24.90;61.40;;;;;;4958434;29;20023;-91
2022/05/26 13:45:32;;;;;;;1.08;0.40;;;25.00;59.70;;;;;;4959167;29;20027;-88
2022/05/26 13:48:26;;;;;;;1.88;0.60;;;25.10;59.30;;;;;;4959109;29;20035;-89
2022/05/26 13:50:55;;;;;;;1.70;0.50;;;25.60;59.50;;;;;;4958332;29;20035;-89
2022/05/26 13:53:21;;;;;;;1.05;0.38;;;25.90;58.70;;;;;;4958523;29;20122;-88
2022/05/26 13:55:49;;;;;;;0.93;0.30;;;25.50;58.20;;;;;;4958388;29;20051;-89